x

Dauphin Island, Al (dpia1) Weather Station

12:00pm - Wed 23rd Jul 2014 All times are CDT. -5 hours from GMT.

  • Wind
    8mph, 9mph gusts
  • Air Temp 81°f
  • Sea Pressure 1018.5mb
  • Dauphin Island, Al
  • Dauphin Island, Al

More Historic Weather Station data

Upgrade to MSW Pro to gain access to the past 30 days of data for over 8000 Wavebouys and Weather Stations around the globe.

Join Pro

Comparision Forecast

View Surf forecast
   
Wed 07/23 12:00pm 8 9 mph 1018.5mb 81f
11:00am 7 8 mph 1018mb 82f
10:00am 7 9 mph 1017.8mb 81f
9:00am 7 9 mph 1018mb 80f
8:00am 6 7 mph 1017.9mb 80f
7:00am 5
mph
1017.5mb 80f
6:00am 6
mph
1016.9mb 80f
5:00am 3 5 mph 1016.5mb 80f
4:00am 5 6 mph 1016.2mb 80f
3:00am 5 6 mph 1016.3mb 81f
2:00am 6 7 mph 1016.6mb 80f
1:00am 5 6 mph 1016.7mb 81f
12:00am 7
mph
1017.3mb 81f
Tue 07/22 11:00pm 5 6 mph 1017.3mb 80f
10:00pm 7 9 mph 1017.5mb 79f
9:00pm 3
mph
1017.2mb 83f
8:00pm 2 3 mph 1016.6mb 83f
7:00pm 10 11 mph 1015.8mb 83f
6:00pm 7 10 mph 1015.9mb 84f
5:00pm 7 9 mph 1015.8mb 83f
4:00pm 9 10 mph 1015.9mb 83f
3:00pm 8 10 mph 1016.3mb 84f
2:00pm 7 9 mph 1016.9mb 83f
1:00pm 8 10 mph 1016.8mb 83f
12:00pm 3 5 mph 1017mb 83f
11:00am 5 6 mph 1017.1mb 82f
10:00am 5 6 mph 1017.1mb 82f
9:00am 6 7 mph 1017mb 81f
8:00am 8 9 mph 1016.9mb 80f
7:00am 10 13 mph 1016.3mb 81f
6:00am 6 7 mph 1015.5mb 81f
5:00am 8 10 mph 1015.1mb 82f
4:00am 6 7 mph 1014.7mb 81f
3:00am 7 9 mph 1014.6mb 81f
2:00am 6 9 mph 1014.9mb 82f
1:00am 8 11 mph 1015.4mb 82f
12:00am 8 9 mph 1015.5mb 83f
Mon 07/21 11:00pm 8 10 mph 1015.9mb 83f
10:00pm 6 9 mph 1015.6mb 83f
9:00pm 7 9 mph 1014.9mb 83f
8:00pm 8 10 mph 1014.8mb 83f
7:00pm 6 8 mph 1015.1mb 84f
6:00pm 7 10 mph 1014.9mb 84f
5:00pm 6 8 mph 1015.1mb 84f
4:00pm 7 13 mph 1015.1mb 84f
3:00pm 8 14 mph 1015.7mb 83f
2:00pm 9 11 mph 1016.3mb 82f
1:00pm 8 9 mph 1016.9mb 82f
12:00pm 7 11 mph 1017mb 83f
11:00am 2 5 mph 1017mb 81f
10:00am 1 2 mph 1017.1mb 80f
9:00am 5
mph
1016.7mb 78f
8:00am 9 10 mph 1016.3mb 77f
7:00am 7
mph
1016mb 78f
6:00am 7 9 mph 1015.7mb 79f
5:00am 10 11 mph 1015.1mb 79f
4:00am 5 6 mph 1014.5mb 80f
3:00am 6 8 mph 1014.6mb 80f
2:00am 8 13 mph 1014.8mb 80f
1:00am 10 13 mph 1015.1mb 80f
12:00am 8 13 mph 1015.5mb 80f
Sun 07/20 11:00pm 7 8 mph 1015.4mb 80f
10:00pm 8 9 mph 1014.8mb 80f
9:00pm 8 11 mph 1014.5mb 80f
8:00pm 10 14 mph 1014.8mb 80f
7:00pm 6 8 mph 1015.2mb 80f
6:00pm 9 11 mph 1015.4mb 80f
5:00pm 10 15 mph 1015.9mb 79f
4:00pm 14 21 mph 1016mb 81f
3:00pm 16 22 mph 1016.7mb 81f
2:00pm 17 21 mph 1016.6mb 82f
1:00pm 9 11 mph 1017.2mb 82f
12:00pm 5 6 mph 1017.2mb 81f
11:00am 6 7 mph 1017mb 81f
10:00am 5
mph
1016.8mb 80f
9:00am 6 7 mph 1017.1mb 79f
8:00am 9 10 mph 1017mb 79f
7:00am 10 11 mph 1016mb 79f
6:00am 13 14 mph 1015.1mb 80f
5:00am 8 11 mph 1015.1mb 81f
4:00am 6 7 mph 1014.4mb 81f
3:00am 5 7 mph 1014.4mb 81f
2:00am 8 10 mph 1014.9mb 81f
1:00am 9 11 mph 1015.2mb 80f
12:00am 9 10 mph 1015.7mb 80f
Sat 07/19 11:00pm 11 14 mph 1015.7mb 81f
10:00pm 10 13 mph 1015.6mb 81f
9:00pm 10 11 mph 1015.7mb 81f
8:00pm 9 10 mph 1015.6mb 81f
7:00pm 8 10 mph 1015.5mb 81f